sensor_id;sensor_type;location;lat;lon;timestamp;P1;durP1;ratioP1;P2;durP2;ratioP2
69623;SDS011;56843;52.020;5.670;2023-02-01T00:00:46;9.77;;;1.95;;
69623;SDS011;56843;52.020;5.670;2023-02-01T00:33:32;8.77;;;2.00;;
69623;SDS011;56843;52.020;5.670;2023-02-01T00:35:03;16.35;;;2.47;;
69623;SDS011;56843;52.020;5.670;2023-02-01T00:36:34;11.52;;;1.80;;
69623;SDS011;56843;52.020;5.670;2023-02-01T00:38:04;6.97;;;2.07;;
69623;SDS011;56843;52.020;5.670;2023-02-01T00:39:35;13.52;;;2.35;;
69623;SDS011;56843;52.020;5.670;2023-02-01T00:41:06;14.53;;;2.83;;
69623;SDS011;56843;52.020;5.670;2023-02-01T00:42:40;12.13;;;2.50;;
69623;SDS011;56843;52.020;5.670;2023-02-01T00:44:10;9.83;;;2.27;;
69623;SDS011;56843;52.020;5.670;2023-02-01T00:45:41;12.63;;;2.38;;
69623;SDS011;56843;52.020;5.670;2023-02-01T00:47:11;9.60;;;2.50;;
69623;SDS011;56843;52.020;5.670;2023-02-01T00:48:42;12.93;;;2.63;;
69623;SDS011;56843;52.020;5.670;2023-02-01T00:50:12;8.27;;;2.00;;
69623;SDS011;56843;52.020;5.670;2023-02-01T00:51:43;6.27;;;1.93;;
69623;SDS011;56843;52.020;5.670;2023-02-01T00:53:13;6.95;;;1.88;;
69623;SDS011;56843;52.020;5.670;2023-02-01T00:54:44;10.60;;;1.97;;
69623;SDS011;56843;52.020;5.670;2023-02-01T00:56:14;8.33;;;2.63;;
69623;SDS011;56843;52.020;5.670;2023-02-01T00:57:45;7.32;;;1.98;;
69623;SDS011;56843;52.020;5.670;2023-02-01T00:59:15;7.93;;;2.37;;
69623;SDS011;56843;52.020;5.670;2023-02-01T01:00:46;16.07;;;3.07;;
69623;SDS011;56843;52.020;5.670;2023-02-01T01:02:17;12.93;;;2.67;;
69623;SDS011;56843;52.020;5.670;2023-02-01T01:03:49;9.25;;;2.05;;
69623;SDS011;56843;52.020;5.670;2023-02-01T01:05:21;11.02;;;2.08;;
69623;SDS011;56843;52.020;5.670;2023-02-01T01:06:52;14.10;;;3.47;;
69623;SDS011;56843;52.020;5.670;2023-02-01T01:08:22;12.73;;;2.83;;
69623;SDS011;56843;52.020;5.670;2023-02-01T01:09:53;9.73;;;3.05;;
69623;SDS011;56843;52.020;5.670;2023-02-01T01:11:25;15.20;;;3.87;;
69623;SDS011;56843;52.020;5.670;2023-02-01T01:12:58;14.48;;;3.80;;
69623;SDS011;56843;52.020;5.670;2023-02-01T01:14:29;7.80;;;2.17;;
69623;SDS011;56843;52.020;5.670;2023-02-01T01:16:01;13.75;;;2.88;;
69623;SDS011;56843;52.020;5.670;2023-02-01T01:17:32;8.70;;;2.20;;
69623;SDS011;56843;52.020;5.670;2023-02-01T01:19:03;12.30;;;2.43;;
69623;SDS011;56843;52.020;5.670;2023-02-01T01:20:34;11.27;;;2.90;;
69623;SDS011;56843;52.020;5.670;2023-02-01T01:22:06;10.85;;;2.85;;
69623;SDS011;56843;52.020;5.670;2023-02-01T01:23:36;11.37;;;2.50;;
69623;SDS011;56843;52.020;5.670;2023-02-01T01:25:06;7.50;;;2.10;;
69623;SDS011;56843;52.020;5.670;2023-02-01T01:26:37;9.27;;;2.00;;
69623;SDS011;56843;52.020;5.670;2023-02-01T01:28:08;6.97;;;2.07;;
69623;SDS011;56843;52.020;5.670;2023-02-01T01:29:38;8.57;;;2.90;;
69623;SDS011;56843;52.020;5.670;2023-02-01T01:31:09;12.20;;;2.60;;
69623;SDS011;56843;52.020;5.670;2023-02-01T01:32:40;9.40;;;3.05;;
69623;SDS011;56843;52.020;5.670;2023-02-01T01:34:11;11.80;;;3.60;;
69623;SDS011;56843;52.020;5.670;2023-02-01T01:35:41;10.63;;;3.05;;
69623;SDS011;56843;52.020;5.670;2023-02-01T01:37:12;10.57;;;3.13;;
69623;SDS011;56843;52.020;5.670;2023-02-01T01:38:43;8.40;;;2.78;;
69623;SDS011;56843;52.020;5.670;2023-02-01T01:40:14;13.13;;;3.03;;
69623;SDS011;56843;52.020;5.670;2023-02-01T01:41:45;11.73;;;2.60;;
69623;SDS011;56843;52.020;5.670;2023-02-01T01:43:22;11.48;;;2.85;;
69623;SDS011;56843;52.020;5.670;2023-02-01T01:44:58;11.40;;;2.55;;
69623;SDS011;56843;52.020;5.670;2023-02-01T01:46:48;12.73;;;2.78;;
69623;SDS011;56843;52.020;5.670;2023-02-01T01:48:28;10.17;;;2.80;;
69623;SDS011;56843;52.020;5.670;2023-02-01T01:50:01;11.43;;;2.10;;
69623;SDS011;56843;52.020;5.670;2023-02-01T01:51:41;10.82;;;2.58;;
69623;SDS011;56843;52.020;5.670;2023-02-01T01:53:18;9.50;;;2.70;;
69623;SDS011;56843;52.020;5.670;2023-02-01T01:54:51;10.55;;;2.42;;
69623;SDS011;56843;52.020;5.670;2023-02-01T01:56:23;9.60;;;2.20;;
69623;SDS011;56843;52.020;5.670;2023-02-01T01:57:57;12.00;;;2.97;;
69623;SDS011;56843;52.020;5.670;2023-02-01T01:59:31;11.18;;;2.95;;
69623;SDS011;56843;52.020;5.670;2023-02-01T02:03:40;12.50;;;3.00;;
69623;SDS011;56843;52.020;5.670;2023-02-01T02:05:13;9.75;;;2.50;;
69623;SDS011;56843;52.020;5.670;2023-02-01T02:08:39;11.32;;;3.40;;
69623;SDS011;56843;52.020;5.670;2023-02-01T02:10:12;12.68;;;3.53;;
69623;SDS011;56843;52.020;5.670;2023-02-01T02:11:45;11.27;;;3.40;;
69623;SDS011;56843;52.020;5.670;2023-02-01T02:13:15;11.23;;;2.97;;
69623;SDS011;56843;52.020;5.670;2023-02-01T02:14:47;16.40;;;3.58;;
69623;SDS011;56843;52.020;5.670;2023-02-01T02:18:22;15.52;;;3.25;;
69623;SDS011;56843;52.020;5.670;2023-02-01T02:34:16;19.17;;;4.10;;
69623;SDS011;56843;52.020;5.670;2023-02-01T02:37:41;9.23;;;3.77;;
69623;SDS011;56843;52.020;5.670;2023-02-01T02:41:33;9.48;;;2.70;;
69623;SDS011;56843;52.020;5.670;2023-02-01T02:43:50;11.48;;;3.40;;
69623;SDS011;56843;52.020;5.670;2023-02-01T02:49:15;10.75;;;2.83;;
69623;SDS011;56843;52.020;5.670;2023-02-01T02:51:05;16.48;;;3.00;;
69623;SDS011;56843;52.020;5.670;2023-02-01T02:53:07;7.82;;;2.47;;
69623;SDS011;56843;52.020;5.670;2023-02-01T02:55:03;10.90;;;2.50;;
69623;SDS011;56843;52.020;5.670;2023-02-01T02:56:37;7.63;;;1.70;;
69623;SDS011;56843;52.020;5.670;2023-02-01T02:58:28;10.05;;;2.55;;
69623;SDS011;56843;52.020;5.670;2023-02-01T03:00:18;10.25;;;2.60;;
69623;SDS011;56843;52.020;5.670;2023-02-01T03:02:10;8.50;;;2.60;;
69623;SDS011;56843;52.020;5.670;2023-02-01T03:04:01;11.15;;;2.58;;
69623;SDS011;56843;52.020;5.670;2023-02-01T03:05:43;9.77;;;2.28;;
69623;SDS011;56843;52.020;5.670;2023-02-01T03:09:18;6.40;;;1.92;;
69623;SDS011;56843;52.020;5.670;2023-02-01T03:10:53;10.20;;;2.28;;
69623;SDS011;56843;52.020;5.670;2023-02-01T03:12:29;7.47;;;2.03;;
69623;SDS011;56843;52.020;5.670;2023-02-01T03:14:23;9.17;;;2.47;;
69623;SDS011;56843;52.020;5.670;2023-02-01T03:16:01;9.10;;;2.63;;
69623;SDS011;56843;52.020;5.670;2023-02-01T03:17:56;13.43;;;2.42;;
69623;SDS011;56843;52.020;5.670;2023-02-01T03:19:30;9.48;;;2.15;;
69623;SDS011;56843;52.020;5.670;2023-02-01T03:21:06;12.40;;;2.50;;
69623;SDS011;56843;52.020;5.670;2023-02-01T03:22:42;7.32;;;2.15;;
69623;SDS011;56843;52.020;5.670;2023-02-01T03:24:17;9.35;;;2.13;;
69623;SDS011;56843;52.020;5.670;2023-02-01T03:25:51;8.45;;;2.40;;
69623;SDS011;56843;52.020;5.670;2023-02-01T03:29:14;17.37;;;2.93;;
69623;SDS011;56843;52.020;5.670;2023-02-01T03:30:48;13.40;;;3.23;;
69623;SDS011;56843;52.020;5.670;2023-02-01T03:32:20;8.90;;;2.45;;
69623;SDS011;56843;52.020;5.670;2023-02-01T03:33:51;8.88;;;2.30;;
69623;SDS011;56843;52.020;5.670;2023-02-01T03:35:24;8.82;;;2.10;;
69623;SDS011;56843;52.020;5.670;2023-02-01T03:37:09;8.45;;;2.03;;
69623;SDS011;56843;52.020;5.670;2023-02-01T03:40:17;10.25;;;2.30;;
69623;SDS011;56843;52.020;5.670;2023-02-01T03:43:21;13.37;;;2.40;;
69623;SDS011;56843;52.020;5.670;2023-02-01T03:45:01;9.70;;;2.50;;
69623;SDS011;56843;52.020;5.670;2023-02-01T03:46:42;14.85;;;2.40;;
69623;SDS011;56843;52.020;5.670;2023-02-01T03:48:19;8.32;;;1.92;;
69623;SDS011;56843;52.020;5.670;2023-02-01T03:49:54;15.05;;;2.60;;
69623;SDS011;56843;52.020;5.670;2023-02-01T03:51:29;10.13;;;2.63;;
69623;SDS011;56843;52.020;5.670;2023-02-01T03:53:04;9.50;;;2.33;;
69623;SDS011;56843;52.020;5.670;2023-02-01T03:54:39;10.10;;;2.70;;
69623;SDS011;56843;52.020;5.670;2023-02-01T03:56:10;16.25;;;2.75;;
69623;SDS011;56843;52.020;5.670;2023-02-01T03:57:46;12.20;;;3.13;;
69623;SDS011;56843;52.020;5.670;2023-02-01T03:59:27;10.30;;;2.73;;
69623;SDS011;56843;52.020;5.670;2023-02-01T04:00:58;12.30;;;3.33;;
69623;SDS011;56843;52.020;5.670;2023-02-01T04:02:31;15.10;;;2.60;;
69623;SDS011;56843;52.020;5.670;2023-02-01T04:04:02;14.17;;;3.90;;
69623;SDS011;56843;52.020;5.670;2023-02-01T04:05:33;14.85;;;3.17;;
69623;SDS011;56843;52.020;5.670;2023-02-01T04:07:07;11.65;;;2.38;;
69623;SDS011;56843;52.020;5.670;2023-02-01T04:08:38;17.10;;;2.92;;
69623;SDS011;56843;52.020;5.670;2023-02-01T04:10:09;14.90;;;2.57;;
69623;SDS011;56843;52.020;5.670;2023-02-01T04:11:40;14.55;;;2.28;;
69623;SDS011;56843;52.020;5.670;2023-02-01T04:13:10;17.77;;;2.23;;
69623;SDS011;56843;52.020;5.670;2023-02-01T04:14:41;15.30;;;2.55;;
69623;SDS011;56843;52.020;5.670;2023-02-01T04:16:11;7.93;;;2.40;;
69623;SDS011;56843;52.020;5.670;2023-02-01T04:17:42;10.27;;;2.60;;
69623;SDS011;56843;52.020;5.670;2023-02-01T04:19:12;11.32;;;2.42;;
69623;SDS011;56843;52.020;5.670;2023-02-01T04:20:43;15.97;;;2.43;;
69623;SDS011;56843;52.020;5.670;2023-02-01T04:22:14;14.38;;;2.40;;
69623;SDS011;56843;52.020;5.670;2023-02-01T04:23:44;13.47;;;2.33;;
69623;SDS011;56843;52.020;5.670;2023-02-01T04:25:15;13.27;;;2.40;;
69623;SDS011;56843;52.020;5.670;2023-02-01T04:26:50;13.37;;;2.50;;
69623;SDS011;56843;52.020;5.670;2023-02-01T04:28:20;7.57;;;2.03;;
69623;SDS011;56843;52.020;5.670;2023-02-01T04:29:51;16.13;;;2.60;;
69623;SDS011;56843;52.020;5.670;2023-02-01T04:31:21;7.60;;;1.80;;
69623;SDS011;56843;52.020;5.670;2023-02-01T04:32:55;11.57;;;2.05;;
69623;SDS011;56843;52.020;5.670;2023-02-01T04:34:25;8.68;;;1.95;;
69623;SDS011;56843;52.020;5.670;2023-02-01T04:35:56;13.77;;;2.27;;
69623;SDS011;56843;52.020;5.670;2023-02-01T04:37:27;11.70;;;1.63;;
69623;SDS011;56843;52.020;5.670;2023-02-01T04:38:57;8.77;;;2.50;;
69623;SDS011;56843;52.020;5.670;2023-02-01T04:40:27;7.33;;;1.77;;
69623;SDS011;56843;52.020;5.670;2023-02-01T04:41:58;12.57;;;2.80;;
69623;SDS011;56843;52.020;5.670;2023-02-01T04:43:28;8.55;;;1.50;;
69623;SDS011;56843;52.020;5.670;2023-02-01T04:44:59;9.53;;;1.80;;
69623;SDS011;56843;52.020;5.670;2023-02-01T04:46:29;6.63;;;1.77;;
69623;SDS011;56843;52.020;5.670;2023-02-01T04:48:00;14.85;;;2.20;;
69623;SDS011;56843;52.020;5.670;2023-02-01T04:49:30;7.40;;;1.90;;
69623;SDS011;56843;52.020;5.670;2023-02-01T04:51:01;10.40;;;1.97;;
69623;SDS011;56843;52.020;5.670;2023-02-01T04:52:31;7.57;;;1.85;;
69623;SDS011;56843;52.020;5.670;2023-02-01T04:54:02;8.53;;;2.00;;
69623;SDS011;56843;52.020;5.670;2023-02-01T04:55:32;14.82;;;1.83;;
69623;SDS011;56843;52.020;5.670;2023-02-01T04:57:03;7.60;;;1.83;;
69623;SDS011;56843;52.020;5.670;2023-02-01T04:58:33;9.93;;;1.97;;
69623;SDS011;56843;52.020;5.670;2023-02-01T05:00:04;8.13;;;1.90;;
69623;SDS011;56843;52.020;5.670;2023-02-01T05:01:36;7.53;;;2.00;;
69623;SDS011;56843;52.020;5.670;2023-02-01T05:03:06;12.40;;;2.00;;
69623;SDS011;56843;52.020;5.670;2023-02-01T05:04:37;7.03;;;1.73;;
69623;SDS011;56843;52.020;5.670;2023-02-01T05:06:07;10.53;;;1.50;;
69623;SDS011;56843;52.020;5.670;2023-02-01T05:07:38;14.52;;;2.03;;
69623;SDS011;56843;52.020;5.670;2023-02-01T05:09:08;12.90;;;1.97;;
69623;SDS011;56843;52.020;5.670;2023-02-01T05:10:39;12.48;;;2.08;;
69623;SDS011;56843;52.020;5.670;2023-02-01T05:12:09;11.73;;;1.90;;
69623;SDS011;56843;52.020;5.670;2023-02-01T05:13:59;10.15;;;1.92;;
69623;SDS011;56843;52.020;5.670;2023-02-01T05:15:30;11.95;;;1.83;;
69623;SDS011;56843;52.020;5.670;2023-02-01T05:17:01;8.50;;;2.00;;
69623;SDS011;56843;52.020;5.670;2023-02-01T05:18:31;7.63;;;1.88;;
69623;SDS011;56843;52.020;5.670;2023-02-01T05:20:02;11.13;;;2.50;;
69623;SDS011;56843;52.020;5.670;2023-02-01T05:21:32;12.90;;;2.10;;
69623;SDS011;56843;52.020;5.670;2023-02-01T05:23:03;18.20;;;2.43;;
69623;SDS011;56843;52.020;5.670;2023-02-01T05:24:33;8.43;;;1.93;;
69623;SDS011;56843;52.020;5.670;2023-02-01T05:26:04;9.75;;;1.88;;
69623;SDS011;56843;52.020;5.670;2023-02-01T05:27:34;11.40;;;2.10;;
69623;SDS011;56843;52.020;5.670;2023-02-01T05:29:05;8.43;;;2.05;;
69623;SDS011;56843;52.020;5.670;2023-02-01T05:30:37;11.43;;;2.20;;
69623;SDS011;56843;52.020;5.670;2023-02-01T05:32:09;11.10;;;2.30;;
69623;SDS011;56843;52.020;5.670;2023-02-01T05:33:40;8.23;;;1.90;;
69623;SDS011;56843;52.020;5.670;2023-02-01T05:35:10;11.53;;;2.23;;
69623;SDS011;56843;52.020;5.670;2023-02-01T05:36:41;14.48;;;3.00;;
69623;SDS011;56843;52.020;5.670;2023-02-01T05:38:11;13.70;;;1.80;;
69623;SDS011;56843;52.020;5.670;2023-02-01T05:39:42;11.68;;;2.90;;
69623;SDS011;56843;52.020;5.670;2023-02-01T05:41:12;9.30;;;1.73;;
69623;SDS011;56843;52.020;5.670;2023-02-01T05:42:43;15.67;;;2.73;;
69623;SDS011;56843;52.020;5.670;2023-02-01T05:44:14;11.10;;;2.50;;
69623;SDS011;56843;52.020;5.670;2023-02-01T05:45:44;9.20;;;2.13;;
69623;SDS011;56843;52.020;5.670;2023-02-01T05:47:15;14.43;;;2.38;;
69623;SDS011;56843;52.020;5.670;2023-02-01T05:48:45;7.43;;;1.50;;
69623;SDS011;56843;52.020;5.670;2023-02-01T05:50:16;10.13;;;1.93;;
69623;SDS011;56843;52.020;5.670;2023-02-01T05:51:46;7.55;;;1.90;;
69623;SDS011;56843;52.020;5.670;2023-02-01T05:53:17;6.97;;;1.70;;
69623;SDS011;56843;52.020;5.670;2023-02-01T05:54:48;10.20;;;2.20;;
69623;SDS011;56843;52.020;5.670;2023-02-01T05:56:18;10.27;;;1.83;;
69623;SDS011;56843;52.020;5.670;2023-02-01T05:57:49;9.57;;;2.60;;
69623;SDS011;56843;52.020;5.670;2023-02-01T05:59:19;8.70;;;2.30;;
69623;SDS011;56843;52.020;5.670;2023-02-01T06:00:50;9.57;;;2.50;;
69623;SDS011;56843;52.020;5.670;2023-02-01T06:02:20;13.18;;;1.95;;
69623;SDS011;56843;52.020;5.670;2023-02-01T06:03:51;10.68;;;2.38;;
69623;SDS011;56843;52.020;5.670;2023-02-01T06:05:22;13.17;;;2.50;;
69623;SDS011;56843;52.020;5.670;2023-02-01T06:06:52;14.68;;;2.75;;
69623;SDS011;56843;52.020;5.670;2023-02-01T06:08:23;22.80;;;2.90;;
69623;SDS011;56843;52.020;5.670;2023-02-01T06:09:57;12.20;;;2.25;;
69623;SDS011;56843;52.020;5.670;2023-02-01T06:11:27;20.00;;;2.33;;
69623;SDS011;56843;52.020;5.670;2023-02-01T06:12:58;18.87;;;2.83;;
69623;SDS011;56843;52.020;5.670;2023-02-01T06:14:28;10.97;;;2.47;;
69623;SDS011;56843;52.020;5.670;2023-02-01T06:15:59;13.65;;;2.17;;
69623;SDS011;56843;52.020;5.670;2023-02-01T06:17:29;18.50;;;2.50;;
69623;SDS011;56843;52.020;5.670;2023-02-01T06:19:00;21.23;;;2.28;;
69623;SDS011;56843;52.020;5.670;2023-02-01T06:20:30;15.17;;;2.70;;
69623;SDS011;56843;52.020;5.670;2023-02-01T06:22:01;13.37;;;2.40;;
69623;SDS011;56843;52.020;5.670;2023-02-01T06:23:31;13.63;;;2.53;;
69623;SDS011;56843;52.020;5.670;2023-02-01T06:25:05;14.47;;;2.60;;
69623;SDS011;56843;52.020;5.670;2023-02-01T06:26:38;14.73;;;2.28;;
69623;SDS011;56843;52.020;5.670;2023-02-01T06:28:09;10.65;;;2.25;;
69623;SDS011;56843;52.020;5.670;2023-02-01T06:29:40;14.93;;;2.37;;
69623;SDS011;56843;52.020;5.670;2023-02-01T06:31:11;12.20;;;1.95;;
69623;SDS011;56843;52.020;5.670;2023-02-01T06:32:42;10.43;;;2.30;;
69623;SDS011;56843;52.020;5.670;2023-02-01T06:34:12;19.87;;;2.30;;
69623;SDS011;56843;52.020;5.670;2023-02-01T06:35:43;8.93;;;2.20;;
69623;SDS011;56843;52.020;5.670;2023-02-01T06:37:17;10.77;;;2.42;;
69623;SDS011;56843;52.020;5.670;2023-02-01T06:38:48;15.93;;;2.65;;
69623;SDS011;56843;52.020;5.670;2023-02-01T06:40:18;8.57;;;1.75;;
69623;SDS011;56843;52.020;5.670;2023-02-01T06:41:49;8.77;;;2.00;;
69623;SDS011;56843;52.020;5.670;2023-02-01T06:43:23;11.07;;;2.13;;
69623;SDS011;56843;52.020;5.670;2023-02-01T06:44:55;8.13;;;2.05;;
69623;SDS011;56843;52.020;5.670;2023-02-01T06:46:26;12.83;;;2.23;;
69623;SDS011;56843;52.020;5.670;2023-02-01T06:47:58;10.07;;;2.57;;
69623;SDS011;56843;52.020;5.670;2023-02-01T06:49:30;11.82;;;1.50;;
69623;SDS011;56843;52.020;5.670;2023-02-01T06:51:00;10.17;;;1.93;;
69623;SDS011;56843;52.020;5.670;2023-02-01T06:52:31;10.40;;;2.10;;
69623;SDS011;56843;52.020;5.670;2023-02-01T06:54:01;11.07;;;1.90;;
69623;SDS011;56843;52.020;5.670;2023-02-01T06:55:32;9.73;;;2.30;;
69623;SDS011;56843;52.020;5.670;2023-02-01T06:57:03;12.53;;;1.90;;
69623;SDS011;56843;52.020;5.670;2023-02-01T06:58:33;7.85;;;1.83;;
69623;SDS011;56843;52.020;5.670;2023-02-01T07:00:04;7.10;;;1.80;;
69623;SDS011;56843;52.020;5.670;2023-02-01T07:01:35;8.63;;;2.10;;
69623;SDS011;56843;52.020;5.670;2023-02-01T07:03:06;12.33;;;1.93;;
69623;SDS011;56843;52.020;5.670;2023-02-01T07:04:36;9.15;;;1.80;;
69623;SDS011;56843;52.020;5.670;2023-02-01T07:06:07;9.87;;;2.30;;
69623;SDS011;56843;52.020;5.670;2023-02-01T07:07:38;17.17;;;2.35;;
69623;SDS011;56843;52.020;5.670;2023-02-01T07:09:09;11.97;;;2.50;;
69623;SDS011;56843;52.020;5.670;2023-02-01T07:10:39;8.68;;;2.25;;
69623;SDS011;56843;52.020;5.670;2023-02-01T07:12:10;10.67;;;1.67;;
69623;SDS011;56843;52.020;5.670;2023-02-01T07:13:40;7.97;;;1.60;;
69623;SDS011;56843;52.020;5.670;2023-02-01T07:15:11;19.50;;;2.17;;
69623;SDS011;56843;52.020;5.670;2023-02-01T07:16:42;6.72;;;1.70;;
69623;SDS011;56843;52.020;5.670;2023-02-01T07:18:12;14.53;;;2.17;;
69623;SDS011;56843;52.020;5.670;2023-02-01T07:19:44;8.18;;;1.92;;
69623;SDS011;56843;52.020;5.670;2023-02-01T07:21:14;11.63;;;2.07;;
69623;SDS011;56843;52.020;5.670;2023-02-01T07:22:45;8.23;;;1.83;;
69623;SDS011;56843;52.020;5.670;2023-02-01T07:24:15;12.68;;;1.90;;
69623;SDS011;56843;52.020;5.670;2023-02-01T07:25:46;9.83;;;1.50;;
69623;SDS011;56843;52.020;5.670;2023-02-01T07:27:17;6.68;;;1.70;;
69623;SDS011;56843;52.020;5.670;2023-02-01T07:28:48;8.05;;;1.67;;
69623;SDS011;56843;52.020;5.670;2023-02-01T07:30:18;8.87;;;1.73;;
69623;SDS011;56843;52.020;5.670;2023-02-01T07:31:49;7.63;;;1.90;;
69623;SDS011;56843;52.020;5.670;2023-02-01T07:33:20;7.23;;;1.70;;
69623;SDS011;56843;52.020;5.670;2023-02-01T07:34:52;10.98;;;1.58;;
69623;SDS011;56843;52.020;5.670;2023-02-01T07:36:22;7.27;;;1.50;;
69623;SDS011;56843;52.020;5.670;2023-02-01T07:37:53;15.82;;;2.20;;
69623;SDS011;56843;52.020;5.670;2023-02-01T07:39:23;8.77;;;2.07;;
69623;SDS011;56843;52.020;5.670;2023-02-01T07:40:57;8.37;;;1.20;;
69623;SDS011;56843;52.020;5.670;2023-02-01T07:42:29;7.30;;;1.10;;
69623;SDS011;56843;52.020;5.670;2023-02-01T07:44:00;11.17;;;1.40;;
69623;SDS011;56843;52.020;5.670;2023-02-01T07:45:30;7.28;;;1.30;;
69623;SDS011;56843;52.020;5.670;2023-02-01T07:47:01;11.00;;;1.93;;
69623;SDS011;56843;52.020;5.670;2023-02-01T07:48:31;8.95;;;1.55;;
69623;SDS011;56843;52.020;5.670;2023-02-01T07:50:04;6.77;;;1.40;;
69623;SDS011;56843;52.020;5.670;2023-02-01T07:51:34;5.47;;;1.25;;
69623;SDS011;56843;52.020;5.670;2023-02-01T07:53:05;6.00;;;1.30;;
69623;SDS011;56843;52.020;5.670;2023-02-01T07:54:35;7.18;;;1.60;;
69623;SDS011;56843;52.020;5.670;2023-02-01T07:56:10;8.43;;;1.23;;
69623;SDS011;56843;52.020;5.670;2023-02-01T07:57:42;6.55;;;1.55;;
69623;SDS011;56843;52.020;5.670;2023-02-01T07:59:13;12.20;;;1.40;;
69623;SDS011;56843;52.020;5.670;2023-02-01T08:00:43;5.47;;;1.40;;
69623;SDS011;56843;52.020;5.670;2023-02-01T08:02:32;5.72;;;1.45;;
69623;SDS011;56843;52.020;5.670;2023-02-01T08:04:03;6.50;;;1.20;;
69623;SDS011;56843;52.020;5.670;2023-02-01T08:05:33;12.25;;;1.67;;
69623;SDS011;56843;52.020;5.670;2023-02-01T08:07:04;9.00;;;1.40;;
69623;SDS011;56843;52.020;5.670;2023-02-01T08:08:35;6.70;;;1.40;;
69623;SDS011;56843;52.020;5.670;2023-02-01T08:10:05;5.80;;;1.08;;
69623;SDS011;56843;52.020;5.670;2023-02-01T08:11:40;5.18;;;1.48;;
69623;SDS011;56843;52.020;5.670;2023-02-01T08:13:11;7.43;;;1.50;;
69623;SDS011;56843;52.020;5.670;2023-02-01T08:14:41;6.33;;;1.57;;
69623;SDS011;56843;52.020;5.670;2023-02-01T08:16:12;5.88;;;1.25;;
69623;SDS011;56843;52.020;5.670;2023-02-01T08:17:47;7.65;;;1.13;;
69623;SDS011;56843;52.020;5.670;2023-02-01T08:19:18;12.37;;;1.60;;
69623;SDS011;56843;52.020;5.670;2023-02-01T08:20:49;7.37;;;1.40;;
69623;SDS011;56843;52.020;5.670;2023-02-01T08:22:19;5.77;;;1.50;;
69623;SDS011;56843;52.020;5.670;2023-02-01T08:23:50;7.72;;;1.15;;
69623;SDS011;56843;52.020;5.670;2023-02-01T08:25:22;7.75;;;1.80;;
69623;SDS011;56843;52.020;5.670;2023-02-01T08:26:54;7.65;;;1.38;;
69623;SDS011;56843;52.020;5.670;2023-02-01T08:28:24;6.53;;;1.30;;
69623;SDS011;56843;52.020;5.670;2023-02-01T08:29:55;7.07;;;1.65;;
69623;SDS011;56843;52.020;5.670;2023-02-01T08:31:26;6.43;;;1.40;;
69623;SDS011;56843;52.020;5.670;2023-02-01T08:32:58;6.10;;;1.33;;
69623;SDS011;56843;52.020;5.670;2023-02-01T08:34:28;7.40;;;1.53;;
69623;SDS011;56843;52.020;5.670;2023-02-01T08:36:00;6.65;;;1.27;;
69623;SDS011;56843;52.020;5.670;2023-02-01T08:37:31;4.43;;;1.10;;
69623;SDS011;56843;52.020;5.670;2023-02-01T08:39:02;11.27;;;1.63;;
69623;SDS011;56843;52.020;5.670;2023-02-01T08:40:35;9.85;;;1.20;;
69623;SDS011;56843;52.020;5.670;2023-02-01T08:42:06;3.63;;;1.30;;
69623;SDS011;56843;52.020;5.670;2023-02-01T08:43:55;5.90;;;1.20;;
69623;SDS011;56843;52.020;5.670;2023-02-01T08:45:28;5.32;;;1.05;;
69623;SDS011;56843;52.020;5.670;2023-02-01T08:47:02;5.30;;;1.27;;
69623;SDS011;56843;52.020;5.670;2023-02-01T08:48:33;7.22;;;1.17;;
69623;SDS011;56843;52.020;5.670;2023-02-01T08:50:04;12.82;;;1.58;;
69623;SDS011;56843;52.020;5.670;2023-02-01T08:51:35;6.45;;;1.42;;
69623;SDS011;56843;52.020;5.670;2023-02-01T08:53:06;5.10;;;1.50;;
69623;SDS011;56843;52.020;5.670;2023-02-01T08:54:36;8.93;;;1.83;;
69623;SDS011;56843;52.020;5.670;2023-02-01T08:56:08;3.97;;;1.15;;
69623;SDS011;56843;52.020;5.670;2023-02-01T08:57:39;5.68;;;1.35;;
69623;SDS011;56843;52.020;5.670;2023-02-01T08:59:10;5.43;;;1.25;;
69623;SDS011;56843;52.020;5.670;2023-02-01T09:00:41;4.67;;;1.47;;
69623;SDS011;56843;52.020;5.670;2023-02-01T09:02:12;6.37;;;1.30;;
69623;SDS011;56843;52.020;5.670;2023-02-01T09:03:45;7.03;;;1.80;;
69623;SDS011;56843;52.020;5.670;2023-02-01T09:05:16;8.25;;;1.63;;
69623;SDS011;56843;52.020;5.670;2023-02-01T09:06:49;6.75;;;1.75;;
69623;SDS011;56843;52.020;5.670;2023-02-01T09:08:19;8.00;;;1.77;;
69623;SDS011;56843;52.020;5.670;2023-02-01T09:09:50;4.90;;;1.93;;
69623;SDS011;56843;52.020;5.670;2023-02-01T09:11:21;4.20;;;1.23;;
69623;SDS011;56843;52.020;5.670;2023-02-01T09:12:51;6.27;;;1.80;;
69623;SDS011;56843;52.020;5.670;2023-02-01T09:14:22;6.50;;;1.50;;
69623;SDS011;56843;52.020;5.670;2023-02-01T09:15:52;6.37;;;1.63;;
69623;SDS011;56843;52.020;5.670;2023-02-01T09:17:23;8.30;;;1.57;;
69623;SDS011;56843;52.020;5.670;2023-02-01T09:18:54;8.30;;;1.67;;
69623;SDS011;56843;52.020;5.670;2023-02-01T09:20:25;5.95;;;1.38;;
69623;SDS011;56843;52.020;5.670;2023-02-01T09:21:55;5.60;;;1.63;;
69623;SDS011;56843;52.020;5.670;2023-02-01T09:23:26;4.80;;;1.00;;
69623;SDS011;56843;52.020;5.670;2023-02-01T09:24:56;7.57;;;1.50;;
69623;SDS011;56843;52.020;5.670;2023-02-01T09:26:27;9.00;;;1.40;;
69623;SDS011;56843;52.020;5.670;2023-02-01T09:27:57;6.47;;;1.83;;
69623;SDS011;56843;52.020;5.670;2023-02-01T09:29:28;6.40;;;1.35;;
69623;SDS011;56843;52.020;5.670;2023-02-01T09:30:59;8.67;;;1.67;;
69623;SDS011;56843;52.020;5.670;2023-02-01T09:32:30;6.55;;;1.83;;
69623;SDS011;56843;52.020;5.670;2023-02-01T09:34:01;5.33;;;1.27;;
69623;SDS011;56843;52.020;5.670;2023-02-01T09:35:31;5.47;;;1.55;;
69623;SDS011;56843;52.020;5.670;2023-02-01T09:37:02;8.13;;;1.90;;
69623;SDS011;56843;52.020;5.670;2023-02-01T09:38:32;5.80;;;1.90;;
69623;SDS011;56843;52.020;5.670;2023-02-01T09:40:03;7.30;;;1.67;;
69623;SDS011;56843;52.020;5.670;2023-02-01T09:46:58;8.30;;;1.77;;
69623;SDS011;56843;52.020;5.670;2023-02-01T09:48:33;8.57;;;1.90;;
69623;SDS011;56843;52.020;5.670;2023-02-01T09:50:18;6.63;;;1.80;;
69623;SDS011;56843;52.020;5.670;2023-02-01T09:51:51;8.35;;;1.55;;
69623;SDS011;56843;52.020;5.670;2023-02-01T09:53:37;5.70;;;1.60;;
69623;SDS011;56843;52.020;5.670;2023-02-01T09:55:16;8.05;;;1.65;;
69623;SDS011;56843;52.020;5.670;2023-02-01T09:56:55;6.50;;;1.63;;
69623;SDS011;56843;52.020;5.670;2023-02-01T09:58:39;6.05;;;1.58;;
69623;SDS011;56843;52.020;5.670;2023-02-01T10:00:22;5.32;;;1.35;;
69623;SDS011;56843;52.020;5.670;2023-02-01T10:01:57;8.65;;;2.08;;
69623;SDS011;56843;52.020;5.670;2023-02-01T10:03:30;6.70;;;1.60;;
69623;SDS011;56843;52.020;5.670;2023-02-01T10:05:04;4.97;;;1.50;;
69623;SDS011;56843;52.020;5.670;2023-02-01T10:13:47;4.18;;;1.23;;
69623;SDS011;56843;52.020;5.670;2023-02-01T10:15:26;5.70;;;1.35;;
69623;SDS011;56843;52.020;5.670;2023-02-01T10:17:14;5.97;;;1.42;;
69623;SDS011;56843;52.020;5.670;2023-02-01T10:23:04;8.10;;;1.57;;
69623;SDS011;56843;52.020;5.670;2023-02-01T10:24:34;7.90;;;1.70;;
69623;SDS011;56843;52.020;5.670;2023-02-01T10:26:22;8.48;;;1.58;;
69623;SDS011;56843;52.020;5.670;2023-02-01T10:27:55;6.15;;;1.65;;
69623;SDS011;56843;52.020;5.670;2023-02-01T10:29:29;11.73;;;1.77;;
69623;SDS011;56843;52.020;5.670;2023-02-01T10:31:04;13.02;;;1.83;;
69623;SDS011;56843;52.020;5.670;2023-02-01T10:32:38;6.57;;;1.40;;
69623;SDS011;56843;52.020;5.670;2023-02-01T10:34:15;8.63;;;1.88;;
69623;SDS011;56843;52.020;5.670;2023-02-01T10:35:58;7.53;;;1.95;;
69623;SDS011;56843;52.020;5.670;2023-02-01T10:37:42;8.60;;;1.60;;
69623;SDS011;56843;52.020;5.670;2023-02-01T10:39:15;5.03;;;1.23;;